createdAt,value
2022-08-30T00:08:39.157Z,15.60
2022-08-30T00:18:45.627Z,14.20
2022-08-30T00:28:52.006Z,13.30
2022-08-30T00:38:58.760Z,13.90
2022-08-30T00:49:08.326Z,15.10
2022-08-30T00:59:14.790Z,12.40
2022-08-30T01:09:21.253Z,12.00
2022-08-30T01:19:40.985Z,11.80
2022-08-30T01:29:47.682Z,11.60
2022-08-30T01:39:54.385Z,9.30
2022-08-30T01:50:00.860Z,7.80
2022-08-30T02:00:10.125Z,10.00
2022-08-30T02:10:16.477Z,10.80
2022-08-30T02:20:22.945Z,9.10
2022-08-30T02:30:29.389Z,8.90
2022-08-30T02:40:35.810Z,10.40
2022-08-30T02:50:48.506Z,10.00
2022-08-30T03:00:55.052Z,9.40
2022-08-30T03:11:02.336Z,11.00
2022-08-30T03:21:13.545Z,9.00
2022-08-30T03:31:20.006Z,9.50
2022-08-30T03:41:26.460Z,10.60
2022-08-30T03:51:33.034Z,9.50
2022-08-30T04:10:45.315Z,9.90
2022-08-30T04:20:59.339Z,11.20
2022-08-30T04:31:20.357Z,11.00
2022-08-30T04:41:33.359Z,10.20
2022-08-30T04:51:46.324Z,10.90
2022-08-30T05:01:59.384Z,10.40
2022-08-30T05:12:18.363Z,10.60
2022-08-30T05:22:31.386Z,11.80
2022-08-30T05:32:44.389Z,9.80
2022-08-30T05:42:57.425Z,9.70
2022-08-30T05:53:10.413Z,11.70
2022-08-30T06:03:23.479Z,12.00
2022-08-30T06:13:43.437Z,13.40
2022-08-30T06:23:56.399Z,12.10
2022-08-30T06:34:09.438Z,22.20
2022-08-30T06:44:22.475Z,23.50
2022-08-30T06:54:35.440Z,21.90
2022-08-30T07:04:48.450Z,17.20
2022-08-30T07:15:01.445Z,16.20
2022-08-30T07:25:14.502Z,16.40
2022-08-30T07:35:27.457Z,13.80
2022-08-30T07:45:40.489Z,18.10
2022-08-30T07:55:53.509Z,13.50
2022-08-30T08:06:06.509Z,15.00
2022-08-30T08:16:19.554Z,11.10
2022-08-30T08:26:32.539Z,13.10
2022-08-30T08:36:45.521Z,15.10
2022-08-30T08:47:10.532Z,17.00
2022-08-30T08:57:24.767Z,16.30
2022-08-30T09:07:40.573Z,17.00
2022-08-30T09:18:20.688Z,18.20
2022-08-30T09:28:36.595Z,13.60
2022-08-30T09:38:52.578Z,14.40
2022-08-30T09:49:05.598Z,13.00
2022-08-30T09:59:33.594Z,13.30
2022-08-30T10:10:12.621Z,11.10
2022-08-30T10:20:52.614Z,12.80
2022-08-30T10:31:20.683Z,12.30
2022-08-30T10:41:39.621Z,12.40
2022-08-30T10:51:58.750Z,9.30
2022-08-30T11:02:37.638Z,8.10
2022-08-30T11:13:05.667Z,9.15
2022-08-30T11:23:33.056Z,8.50
2022-08-30T11:33:58.718Z,6.90
2022-08-30T11:44:29.752Z,8.30
2022-08-30T11:55:07.686Z,6.00
2022-08-30T12:05:48.776Z,6.10
2022-08-30T12:16:27.735Z,7.50
2022-08-30T12:26:42.744Z,4.90
2022-08-30T12:37:06.737Z,4.00
2022-08-30T12:47:20.790Z,4.70
2022-08-30T12:57:46.780Z,4.80
2022-08-30T13:07:59.789Z,4.80
2022-08-30T13:18:38.807Z,5.50
2022-08-30T13:28:57.787Z,6.10
2022-08-30T13:39:11.774Z,4.70
2022-08-30T13:49:44.646Z,5.30
2022-08-30T13:59:57.807Z,4.50
2022-08-30T14:10:33.223Z,4.80
2022-08-30T14:20:48.870Z,3.90
2022-08-30T14:31:01.814Z,4.50
2022-08-30T14:41:14.847Z,4.20
2022-08-30T14:51:30.849Z,3.70
2022-08-30T15:01:45.856Z,3.50
2022-08-30T15:12:06.884Z,4.10
2022-08-30T15:22:20.963Z,5.00
2022-08-30T15:32:33.879Z,4.90
2022-08-30T15:42:46.979Z,5.90
2022-08-30T15:53:00.009Z,4.20
2022-08-30T16:03:12.959Z,3.50
2022-08-30T16:13:31.927Z,4.15
2022-08-30T16:23:46.940Z,4.60
2022-08-30T16:34:02.329Z,5.60
2022-08-30T16:44:17.729Z,4.20
2022-08-30T16:54:30.947Z,4.20
2022-08-30T17:04:43.972Z,4.70
2022-08-30T17:15:05.447Z,4.50
2022-08-30T17:25:19.918Z,4.80
2022-08-30T17:35:33.007Z,3.30
2022-08-30T17:45:45.986Z,4.90
2022-08-30T17:55:59.015Z,5.20
2022-08-30T18:06:12.995Z,5.40
2022-08-30T18:16:27.090Z,5.90
2022-08-30T18:26:42.859Z,6.20
2022-08-30T18:36:56.063Z,7.70
2022-08-30T18:47:11.066Z,14.20
2022-08-30T18:57:24.060Z,17.80
2022-08-30T19:07:37.569Z,14.20
2022-08-30T19:17:53.140Z,14.50
2022-08-30T19:28:06.396Z,10.50
2022-08-30T19:38:21.313Z,12.10
2022-08-30T19:48:38.962Z,11.80
2022-08-30T19:58:53.142Z,11.30
2022-08-30T20:09:10.557Z,12.30
2022-08-30T20:19:27.267Z,10.80
2022-08-30T20:29:42.140Z,11.70
2022-08-30T20:39:55.143Z,9.90
2022-08-30T20:50:08.958Z,11.20
2022-08-30T21:00:27.170Z,10.00
2022-08-30T21:10:40.203Z,11.50
2022-08-30T21:20:53.162Z,12.70
2022-08-30T21:31:18.262Z,12.10
2022-08-30T21:41:32.209Z,16.80
2022-08-30T21:51:48.212Z,17.00
2022-08-30T22:02:09.218Z,15.20
2022-08-30T22:12:28.212Z,18.20
2022-08-30T22:22:41.230Z,16.70
2022-08-30T22:32:55.239Z,18.50
2022-08-30T22:43:08.262Z,16.40
2022-08-30T22:53:21.239Z,9.80
2022-08-30T23:03:34.257Z,11.80
2022-08-30T23:13:55.299Z,12.60
2022-08-30T23:24:26.269Z,11.40
2022-08-30T23:34:57.319Z,6.40
2022-08-30T23:45:27.346Z,8.70
2022-08-30T23:55:58.307Z,7.50
